Hlavní strana
METAR-TAF:

METAR-TAF

Letiště :

Arvidsjaur, Švédsko

zeměpisná šířka: 65-35-25N, zeměpisná délka: 019-16-55E, výška: 379 m

Aktuální stav počasí

Zpráva byla vytvořena před 14 minutami, v 19:50 UTC
Severovýchodní vítr 12 kt
Teplota -14°C
Vlhkost vzduchu 85%
Tlak 989 hPa
Viditelnost: 3000 m
slabé sněžení

METAR: ESNX 221950Z 05012KT 3000 -SN VV015 M14/M16 Q0989

Čas: 21:04 (20:04 UTC)

Předpověď počasí

Zpráva byla vytvořena před 1 hodinou a 11 minutami, v 18:53 UTC
Předpověď platná od 22 v 18 UTC do 22 v 21 UTC
Východoseverovýchodní vítr 12 kt s nárazy do 25 kt
Viditelnost: 5000 m
Oblačno až skoro zataženo ve výšce 900 ft
slabé sněžení
Dočasný
od 22 v 18 UTC do 22 v 21 UTC
Viditelnost: 0800 m
ve výšce 1500 ft
sníh

TAF: ESNX 221853Z 2218/2221 07012G25KT 5000 -SN BKN009 TEMPO 2218/2221 0800 SN VV015

Stav a předpovědi počasí z více než 4 000 letišť (zprávy METAR a TAF).

Červené a žluté tečky na mapě představují dostupné meteorologické stanice.

Když kurzor umístíte na tečku, zobrazí se název stanice.

Pak kliknutím zobrazíte stav a předpověď počasí.

Chcete-li změnit mapu, kliknutím na zelené tlačítko se znaménkem +mapu přiblížíte, kliknutím na zelené tlačítko se znaménkem – mapu oddálíte a kliknutím na zelené šipky přejdete na sousední mapy.


METAR-TAF: